메인 페이지
METAR-TAF:

METAR-TAF

공항 :

리스본 포르텔라 국제공항

리스본, 포르투갈

위도: 38-46N, 경도: 009-08W, 고도: 114m

현재 날씨관측

예보는 35분 전, 02:30시(UTC)에 발표되었습니다.
서북서2kt
온도 18°C
습도 88%
기압 1018 hPa
시정 10km 이상
1500m 미만 상공 구름 및 적란운 없음

METAR: LPPT 160230Z 29002KT CAVOK 18/16 Q1018

시각: 04:05 (03:05 UTC)

예보

예보는 4 시간 5분 전, 23:00시(UTC)에 발표되었습니다.
예보 대상 시간: 16일 00시부터 17일 06시까지 (UTC)
서북서8kt
시정 10km 이상
1500m 미만 상공 구름 및 적란운 없음
전환 중
16일 00시부터 16일 03시까지 (UTC)
여러 방향의 바람 3kt
시정 10km 이상
고도 1200ft 상공 구름 조금
전환 중
16일 10시부터 16일 12시까지 (UTC)
남남서10kt
고도 2500ft 상공 구름 조금
전환 중
16일 18시부터 16일 21시까지 (UTC)
7kt
고도 1000ft 상공 구름 보통
전환 중
16일 22시부터 16일 24시까지 (UTC)
여러 방향의 바람 3kt
확률 30%
17일 03시부터 17일 06시까지 (UTC)
시정: 5000m
고도 800ft 상공 구름 많음
박무

TAF: LPPT 152300Z 1600/1706 30008KT CAVOK BECMG 1600/1603 VRB03KT 9999 FEW012 BECMG 1610/1612 21010KT FEW025 BECMG 1618/1621 28007KT SCT010 BECMG 1622/1624 VRB03KT PROB30 1703/1706 5000 BR BKN008

4,000개 이상의 공항 관측 자료 및 예보 (METAR 및 TAF 보고).

지도상에서 검색 가능한 기상관측소가 노란 점과 빨간 점으로 표시되어 있습니다.

기상관측소 명을 보려면 표시 위로 마우스를 이동하세요.

날씨 관측과 예보를 보려면 클릭하세요.

지도 변경 : 확대하려면 엑스 표시가 있는 녹색 버튼, 축소하려면 빼기 표시가 있는 녹색 버튼, 다음 페이지의 지도를 보려면 녹색 화살표를 클릭하세요.


METAR-TAF: